createdAt,value
2022-10-29T00:02:55.882Z,18.23
2022-10-29T00:06:17.527Z,18.87
2022-10-29T00:08:59.369Z,16.03
2022-10-29T00:11:41.190Z,14.53
2022-10-29T00:14:42.883Z,17.40
2022-10-29T00:18:04.556Z,13.60
2022-10-29T00:20:46.442Z,17.00
2022-10-29T00:23:28.216Z,14.90
2022-10-29T00:26:30.295Z,17.17
2022-10-29T00:29:51.939Z,16.83
2022-10-29T00:32:33.715Z,15.50
2022-10-29T00:35:15.486Z,16.17
2022-10-29T00:37:57.692Z,13.57
2022-10-29T00:40:59.523Z,17.53
2022-10-29T00:44:02.310Z,19.80
2022-10-29T00:47:09.767Z,14.23
2022-10-29T00:50:04.487Z,15.37
2022-10-29T00:52:49.767Z,17.57
2022-10-29T00:55:51.732Z,17.93
2022-10-29T00:59:13.354Z,16.33
2022-10-29T01:01:56.248Z,17.37
2022-10-29T01:04:39.736Z,18.80
2022-10-29T01:07:22.801Z,22.53
2022-10-29T01:10:40.818Z,14.17
2022-10-29T01:13:25.079Z,14.10
2022-10-29T01:16:12.703Z,13.83
2022-10-29T01:19:06.603Z,15.73
2022-10-29T01:21:53.568Z,18.67
2022-10-29T01:24:53.907Z,14.40
2022-10-29T01:28:01.502Z,15.53
2022-10-29T01:30:54.748Z,16.13
2022-10-29T01:33:46.147Z,13.20
2022-10-29T01:37:00.768Z,17.80
2022-10-29T01:40:07.524Z,18.30
2022-10-29T01:43:15.267Z,15.33
2022-10-29T01:46:39.978Z,17.73
2022-10-29T01:49:28.439Z,17.57
2022-10-29T01:52:14.246Z,20.53
2022-10-29T01:55:15.974Z,15.13
2022-10-29T01:58:37.943Z,14.97
2022-10-29T02:01:46.875Z,14.90
2022-10-29T02:04:46.827Z,16.33
2022-10-29T02:08:03.600Z,16.03
2022-10-29T02:11:11.257Z,17.30
2022-10-29T02:14:04.521Z,17.77
2022-10-29T02:16:48.575Z,18.20
2022-10-29T02:19:53.912Z,14.83
2022-10-29T02:23:15.808Z,14.43
2022-10-29T02:25:57.658Z,18.07
2022-10-29T02:28:39.685Z,13.33
2022-10-29T02:31:41.435Z,13.07
2022-10-29T02:35:03.092Z,14.87
2022-10-29T02:38:24.760Z,17.03
2022-10-29T02:41:26.438Z,21.10
2022-10-29T02:44:08.246Z,15.57
2022-10-29T02:46:50.194Z,14.10
2022-10-29T02:49:51.930Z,14.90
2022-10-29T02:53:13.560Z,17.33
2022-10-29T02:55:55.312Z,16.37
2022-10-29T02:58:37.283Z,15.13
2022-10-29T03:01:39.114Z,15.50
2022-10-29T03:05:00.844Z,15.07
2022-10-29T03:07:42.616Z,15.03
2022-10-29T03:10:24.334Z,15.87
2022-10-29T03:13:06.168Z,17.83
2022-10-29T03:16:08.328Z,17.60
2022-10-29T03:19:10.037Z,14.73
2022-10-29T03:22:31.685Z,16.83
2022-10-29T03:25:13.459Z,22.47
2022-10-29T03:27:55.622Z,15.70
2022-10-29T03:30:57.751Z,15.07
2022-10-29T03:34:19.404Z,14.10
2022-10-29T03:37:41.031Z,13.73
2022-10-29T03:40:42.772Z,17.47
2022-10-29T03:43:24.864Z,18.13
2022-10-29T03:46:07.038Z,16.77
2022-10-29T03:49:09.991Z,16.73
2022-10-29T03:52:31.660Z,19.07
2022-10-29T03:55:13.441Z,16.40
2022-10-29T03:57:56.624Z,18.83
2022-10-29T04:00:58.656Z,12.40
2022-10-29T04:04:20.305Z,16.80
2022-10-29T04:07:02.135Z,11.97
2022-10-29T04:09:44.060Z,16.60
2022-10-29T04:12:45.792Z,16.53
2022-10-29T04:16:07.432Z,15.27
2022-10-29T04:18:49.992Z,14.60
2022-10-29T04:23:25.525Z,17.47
2022-10-29T04:28:43.008Z,16.10
2022-10-29T04:32:05.113Z,16.90
2022-10-29T04:35:06.790Z,12.93
2022-10-29T04:37:48.534Z,13.33
2022-10-29T04:40:30.286Z,20.47
2022-10-29T04:43:32.123Z,12.70
2022-10-29T04:46:53.748Z,14.73
2022-10-29T04:49:35.576Z,19.67
2022-10-29T04:52:17.379Z,17.67
2022-10-29T04:55:19.149Z,12.33
2022-10-29T04:58:40.782Z,17.03
2022-10-29T05:01:22.944Z,16.57
2022-10-29T05:04:04.969Z,13.77
2022-10-29T05:07:06.738Z,17.53
2022-10-29T05:10:28.481Z,14.13
2022-10-29T05:13:50.186Z,12.07
2022-10-29T05:16:51.874Z,14.63
2022-10-29T05:19:33.637Z,15.23
2022-10-29T05:22:15.378Z,15.70
2022-10-29T05:25:17.101Z,10.27
2022-10-29T05:28:24.603Z,11.87
2022-10-29T05:31:06.454Z,12.73
2022-10-29T05:33:50.008Z,13.63
2022-10-29T05:36:54.165Z,17.87
2022-10-29T05:40:15.805Z,12.67
2022-10-29T05:42:57.922Z,12.73
2022-10-29T05:45:40.201Z,13.73
2022-10-29T05:48:21.971Z,13.53
2022-10-29T05:51:23.773Z,14.00
2022-10-29T05:54:25.603Z,17.37
2022-10-29T05:57:47.285Z,11.80
2022-10-29T06:01:08.973Z,12.67
2022-10-29T06:04:10.789Z,12.10
2022-10-29T06:06:52.663Z,11.20
2022-10-29T06:09:34.451Z,12.07
2022-10-29T06:12:36.167Z,12.10
2022-10-29T06:15:57.984Z,10.83
2022-10-29T06:18:39.755Z,12.73
2022-10-29T06:21:21.531Z,13.60
2022-10-29T06:24:23.438Z,11.13
2022-10-29T06:27:45.113Z,11.77
2022-10-29T06:31:06.767Z,11.60
2022-10-29T06:34:08.475Z,11.87
2022-10-29T06:36:50.240Z,12.13
2022-10-29T06:39:31.968Z,12.13
2022-10-29T06:42:33.708Z,11.80
2022-10-29T06:45:55.746Z,9.03
2022-10-29T06:48:37.570Z,13.57
2022-10-29T06:51:19.382Z,10.07
2022-10-29T06:54:21.179Z,13.93
2022-10-29T06:57:42.845Z,12.17
2022-10-29T07:00:24.940Z,14.10
2022-10-29T07:03:07.349Z,14.93
2022-10-29T07:06:15.280Z,9.87
2022-10-29T07:09:36.933Z,13.57
2022-10-29T07:13:01.168Z,11.43
2022-10-29T07:16:02.969Z,12.27
2022-10-29T07:18:44.776Z,15.17
2022-10-29T07:21:26.561Z,8.17
2022-10-29T07:24:28.570Z,12.20
2022-10-29T07:27:50.283Z,9.37
2022-10-29T07:30:33.083Z,10.13
2022-10-29T07:33:14.943Z,9.90
2022-10-29T07:36:17.764Z,14.80
2022-10-29T07:39:39.413Z,12.83
2022-10-29T07:43:01.148Z,10.33
2022-10-29T07:46:04.608Z,13.17
2022-10-29T07:48:47.002Z,10.63
2022-10-29T07:51:28.782Z,18.67
2022-10-29T07:54:30.547Z,9.97
2022-10-29T07:57:53.000Z,17.23
2022-10-29T08:00:38.153Z,10.50
2022-10-29T08:03:20.135Z,17.00
2022-10-29T08:06:22.443Z,14.80
2022-10-29T08:09:44.203Z,16.33
2022-10-29T08:13:09.450Z,12.33
2022-10-29T08:16:11.143Z,12.90
2022-10-29T08:18:52.936Z,11.60
2022-10-29T08:21:34.672Z,13.83
2022-10-29T08:24:16.502Z,10.93
2022-10-29T08:27:18.196Z,17.50
2022-10-29T08:30:19.913Z,19.17
2022-10-29T08:33:01.886Z,12.20
2022-10-29T08:36:03.859Z,11.13
2022-10-29T08:39:25.490Z,17.37
2022-10-29T08:42:27.257Z,18.07
2022-10-29T08:45:14.827Z,16.53
2022-10-29T08:48:27.820Z,18.37
2022-10-29T08:51:24.847Z,13.30
2022-10-29T08:54:32.500Z,16.63
2022-10-29T08:57:54.573Z,18.83
2022-10-29T09:00:38.632Z,17.70
2022-10-29T09:03:20.640Z,10.67
2022-10-29T09:06:28.151Z,14.70
2022-10-29T09:09:55.091Z,14.50
2022-10-29T09:12:48.118Z,20.73
2022-10-29T09:16:16.128Z,17.60
2022-10-29T09:19:23.203Z,15.87
2022-10-29T09:22:42.816Z,20.53
2022-10-29T09:25:43.228Z,18.23
2022-10-29T09:28:43.429Z,16.87
2022-10-29T09:32:00.468Z,16.90
2022-10-29T09:35:30.959Z,16.60
2022-10-29T09:39:02.519Z,17.93
2022-10-29T09:42:04.742Z,13.90
2022-10-29T09:44:51.959Z,19.40
2022-10-29T09:47:48.769Z,16.23
2022-10-29T09:50:33.443Z,21.07
2022-10-29T09:53:55.140Z,19.50
2022-10-29T09:56:41.407Z,15.80
2022-10-29T09:59:34.959Z,11.40
2022-10-29T10:02:56.206Z,13.33
2022-10-29T10:06:01.411Z,17.23
2022-10-29T10:09:41.720Z,17.97
2022-10-29T10:12:45.804Z,25.07
2022-10-29T10:15:37.324Z,24.90
2022-10-29T10:18:25.361Z,19.63
2022-10-29T10:21:34.695Z,23.17
2022-10-29T10:24:56.373Z,22.80
2022-10-29T10:27:38.152Z,21.80
2022-10-29T10:30:23.557Z,18.40
2022-10-29T10:33:44.222Z,26.90
2022-10-29T10:37:05.861Z,26.60
2022-10-29T10:40:27.798Z,22.93
2022-10-29T10:43:42.021Z,24.70
2022-10-29T10:46:30.714Z,28.57
2022-10-29T10:49:15.092Z,23.37
2022-10-29T10:52:18.332Z,25.70
2022-10-29T10:55:40.265Z,26.13
2022-10-29T10:58:40.589Z,26.57
2022-10-29T11:01:41.299Z,28.37
2022-10-29T11:04:30.087Z,27.20
2022-10-29T11:07:34.138Z,24.83
2022-10-29T11:10:36.571Z,26.50
2022-10-29T11:13:58.213Z,20.80
2022-10-29T11:16:52.418Z,20.60
2022-10-29T11:19:44.969Z,18.47
2022-10-29T11:22:52.408Z,20.97
2022-10-29T11:26:14.471Z,24.57
2022-10-29T11:29:19.422Z,27.87
2022-10-29T11:32:09.872Z,23.70
2022-10-29T11:35:04.273Z,19.37
2022-10-29T11:38:27.381Z,27.43
2022-10-29T11:41:42.132Z,20.50
2022-10-29T11:45:03.863Z,19.43
2022-10-29T11:48:11.217Z,21.20
2022-10-29T11:51:02.432Z,19.07
2022-10-29T11:54:05.716Z,24.13
2022-10-29T11:57:36.099Z,22.80
2022-10-29T12:00:23.913Z,24.43
2022-10-29T14:42:40.344Z,10.90
2022-10-29T14:45:28.527Z,19.33
2022-10-29T14:48:01.278Z,10.63
2022-10-29T14:50:30.191Z,13.83
2022-10-29T14:53:01.175Z,17.70
2022-10-29T14:55:33.736Z,13.80
2022-10-29T14:58:12.852Z,13.77
2022-10-29T15:00:59.019Z,13.90
2022-10-29T15:03:30.215Z,17.33
2022-10-29T15:06:20.139Z,19.57
2022-10-29T15:08:54.775Z,15.80
2022-10-29T15:11:39.485Z,12.27
2022-10-29T15:14:30.104Z,12.53
2022-10-29T15:16:58.098Z,13.97
2022-10-29T15:19:25.173Z,13.50
2022-10-29T15:21:52.403Z,14.60
2022-10-29T15:24:22.816Z,16.10
2022-10-29T15:26:59.043Z,17.13
2022-10-29T15:29:36.248Z,13.60
2022-10-29T15:32:05.930Z,12.97
2022-10-29T15:34:37.055Z,19.70
2022-10-29T15:37:19.044Z,16.67
2022-10-29T15:40:14.963Z,21.60
2022-10-29T15:42:45.454Z,16.53
2022-10-29T15:47:53.114Z,14.73
2022-10-29T15:50:32.513Z,14.23
2022-10-29T15:53:05.633Z,17.50
2022-10-29T15:55:35.676Z,18.13
2022-10-29T15:58:14.297Z,19.57
2022-10-29T16:00:44.359Z,20.47
2022-10-29T16:03:15.608Z,19.20
2022-10-29T16:05:45.597Z,19.23
2022-10-29T16:08:22.471Z,17.10
2022-10-29T16:10:49.673Z,19.27
2022-10-29T16:13:18.032Z,19.77
2022-10-29T16:15:45.188Z,16.53
2022-10-29T16:18:16.370Z,21.00
2022-10-29T16:20:43.700Z,18.57
2022-10-29T16:23:11.976Z,17.00
2022-10-29T16:25:39.856Z,18.60
2022-10-29T16:28:07.335Z,21.40
2022-10-29T16:30:34.818Z,19.23
2022-10-29T16:33:09.976Z,17.17
2022-10-29T16:35:43.748Z,16.37
2022-10-29T16:38:11.211Z,15.90
2022-10-29T16:40:39.105Z,18.33
2022-10-29T16:43:06.061Z,17.20
2022-10-29T16:45:33.171Z,18.47
2022-10-29T16:48:00.491Z,22.83
2022-10-29T16:50:30.850Z,15.33
2022-10-29T16:53:06.511Z,18.67
2022-10-29T16:55:38.651Z,20.00
2022-10-29T16:58:23.661Z,15.50
2022-10-29T17:00:50.774Z,18.77
2022-10-29T17:03:18.572Z,19.97
2022-10-29T17:05:47.142Z,19.30
2022-10-29T17:08:14.101Z,18.73
2022-10-29T17:10:41.839Z,17.27
2022-10-29T17:13:14.402Z,20.60
2022-10-29T17:15:41.994Z,17.50
2022-10-29T17:18:09.509Z,18.83
2022-10-29T17:20:36.575Z,22.70
2022-10-29T17:23:03.536Z,17.77
2022-10-29T17:25:30.450Z,16.53
2022-10-29T17:28:09.494Z,18.03
2022-10-29T17:30:42.095Z,17.70
2022-10-29T17:33:09.858Z,24.53
2022-10-29T17:35:36.715Z,20.73
2022-10-29T17:38:03.778Z,18.17
2022-10-29T17:40:30.760Z,18.70
2022-10-29T17:42:58.138Z,21.67
2022-10-29T17:45:25.574Z,17.83
2022-10-29T17:48:00.968Z,19.00
2022-10-29T17:50:28.544Z,18.53
2022-10-29T17:52:57.831Z,21.30
2022-10-29T17:55:24.976Z,21.67
2022-10-29T17:57:52.047Z,21.67
2022-10-29T18:00:19.148Z,19.33
2022-10-29T18:02:49.899Z,16.13
2022-10-29T18:05:20.744Z,18.47
2022-10-29T18:07:47.784Z,19.63
2022-10-29T18:10:16.812Z,18.33
2022-10-29T18:12:43.946Z,19.73
2022-10-29T18:15:10.961Z,17.43
2022-10-29T18:17:38.192Z,19.63
2022-10-29T18:20:05.576Z,15.87
2022-10-29T18:22:32.764Z,13.40
2022-10-29T18:24:59.779Z,17.17
2022-10-29T18:27:27.192Z,20.60
2022-10-29T18:29:54.210Z,18.50
2022-10-29T18:32:21.090Z,16.00
2022-10-29T18:34:50.490Z,17.43
2022-10-29T18:37:17.472Z,17.33
2022-10-29T18:39:46.683Z,20.60
2022-10-29T18:42:16.525Z,19.67
2022-10-29T18:44:55.849Z,17.77
2022-10-29T18:47:23.061Z,19.73
2022-10-29T18:49:49.996Z,16.97
2022-10-29T18:52:17.427Z,20.20
2022-10-29T18:54:44.555Z,22.60
2022-10-29T18:57:15.323Z,19.83
2022-10-29T18:59:46.135Z,21.60
2022-10-29T19:02:14.763Z,21.10
2022-10-29T19:04:42.093Z,20.13
2022-10-29T19:07:08.979Z,19.73
2022-10-29T19:09:36.056Z,16.13
2022-10-29T19:12:02.991Z,21.10
2022-10-29T19:14:30.022Z,18.30
2022-10-29T19:16:56.912Z,16.53
2022-10-29T19:19:24.325Z,23.93
2022-10-29T19:21:51.436Z,18.83
2022-10-29T19:24:19.231Z,24.60
2022-10-29T19:26:46.217Z,19.87
2022-10-29T19:29:13.583Z,18.27
2022-10-29T19:31:43.857Z,16.73
2022-10-29T19:34:10.794Z,18.17
2022-10-29T19:36:40.309Z,18.00
2022-10-29T19:39:08.016Z,23.03
2022-10-29T19:41:35.412Z,17.33
2022-10-29T19:44:02.799Z,17.37
2022-10-29T19:46:30.443Z,21.20
2022-10-29T19:48:58.450Z,20.27
2022-10-29T19:51:25.551Z,20.80
2022-10-29T19:53:52.792Z,18.43
2022-10-29T19:56:22.014Z,15.60
2022-10-29T19:59:04.743Z,18.70
2022-10-29T20:01:31.838Z,17.07
2022-10-29T20:03:59.083Z,15.87
2022-10-29T20:06:26.010Z,16.60
2022-10-29T20:08:53.075Z,21.50
2022-10-29T20:11:20.151Z,16.47
2022-10-29T20:13:51.416Z,15.57
2022-10-29T20:16:21.388Z,17.50
2022-10-29T20:18:49.595Z,21.37
2022-10-29T20:21:17.359Z,18.10
2022-10-29T20:23:45.064Z,21.33
2022-10-29T20:26:12.688Z,18.27
2022-10-29T20:28:39.781Z,21.87
2022-10-29T20:31:19.285Z,23.07
2022-10-29T20:33:55.274Z,20.30
2022-10-29T20:36:28.788Z,19.30
2022-10-29T20:38:56.126Z,21.07
2022-10-29T20:41:23.624Z,18.63
2022-10-29T20:43:59.613Z,23.43
2022-10-29T20:46:27.164Z,18.17
2022-10-29T20:48:54.123Z,23.77
2022-10-29T20:51:22.882Z,19.60
2022-10-29T20:53:51.086Z,22.00
2022-10-29T20:56:20.008Z,19.90
2022-10-29T20:58:46.963Z,27.77
2022-10-29T21:01:16.427Z,23.30
2022-10-29T21:03:44.406Z,22.03
2022-10-29T21:06:17.185Z,27.50
2022-10-29T21:09:07.677Z,29.13
2022-10-29T21:11:34.735Z,24.83
2022-10-29T21:14:01.793Z,21.77
2022-10-29T21:16:29.287Z,21.80
2022-10-29T21:19:01.094Z,28.13
2022-10-29T21:21:29.460Z,20.53
2022-10-29T21:23:57.340Z,26.97
2022-10-29T21:26:26.083Z,30.70
2022-10-29T21:28:53.990Z,29.03
2022-10-29T21:31:21.998Z,22.83
2022-10-29T21:33:55.318Z,28.37
2022-10-29T21:36:23.234Z,28.13
2022-10-29T21:38:50.430Z,30.83
2022-10-29T21:41:18.380Z,28.47
2022-10-29T21:43:45.652Z,24.20
2022-10-29T21:46:12.614Z,26.90
2022-10-29T21:48:39.584Z,27.10
2022-10-29T21:51:11.914Z,22.97
2022-10-29T21:53:38.903Z,27.37
2022-10-29T21:56:07.992Z,26.23
2022-10-29T21:58:35.806Z,28.47
2022-10-29T22:01:10.888Z,29.53
2022-10-29T22:03:41.384Z,28.53
2022-10-29T22:06:12.750Z,29.73
2022-10-29T22:08:40.376Z,33.77
2022-10-29T22:11:07.857Z,30.90
2022-10-29T22:13:35.555Z,32.20
2022-10-29T22:16:04.656Z,32.57
2022-10-29T22:18:32.843Z,32.90
2022-10-29T22:21:13.596Z,29.73
2022-10-29T22:23:49.951Z,30.03
2022-10-29T22:26:18.856Z,31.57
2022-10-29T22:28:47.213Z,29.67
2022-10-29T22:31:15.275Z,32.63
2022-10-29T22:33:43.467Z,37.23
2022-10-29T22:36:22.495Z,33.63
2022-10-29T22:38:57.461Z,32.90
2022-10-29T22:41:28.565Z,26.90
2022-10-29T22:43:58.855Z,29.50
2022-10-29T22:46:27.151Z,31.70
2022-10-29T22:48:54.182Z,25.27
2022-10-29T22:51:23.627Z,29.40
2022-10-29T22:53:52.010Z,26.07
2022-10-29T22:56:25.877Z,32.03
2022-10-29T22:58:54.715Z,31.37
2022-10-29T23:01:45.491Z,27.03
2022-10-29T23:04:13.330Z,29.33
2022-10-29T23:06:40.208Z,31.70
2022-10-29T23:09:07.478Z,31.33
2022-10-29T23:11:38.898Z,27.43
2022-10-29T23:14:06.361Z,28.50
2022-10-29T23:16:35.278Z,35.20
2022-10-29T23:19:09.955Z,29.83
2022-10-29T23:21:39.402Z,26.40
2022-10-29T23:24:06.776Z,33.83
2022-10-29T23:26:33.776Z,30.47
2022-10-29T23:29:00.677Z,32.30
2022-10-29T23:31:28.547Z,29.77
2022-10-29T23:33:57.212Z,36.07
2022-10-29T23:36:43.994Z,31.93
2022-10-29T23:39:21.120Z,28.70
2022-10-29T23:41:47.973Z,31.13
2022-10-29T23:44:15.060Z,29.43
2022-10-29T23:46:41.952Z,27.50
2022-10-29T23:49:09.044Z,30.07
2022-10-29T23:51:36.217Z,26.37
2022-10-29T23:54:03.220Z,28.93
2022-10-29T23:56:30.138Z,29.03
2022-10-29T23:58:57.277Z,28.80
